Time;durP1;ratioP1;P1;durP2;ratioP2;P2;SDS_P1;SDS_P2;PMS_P1;PMS_P2;Temp;Humidity;BMP_temperature;BMP_pressure;BME280_temperature;BME280_humidity;BME280_pressure;Samples;Min_cycle;Max_cycle;Signal;HPM_P1;HPM_P2
2022/11/29 00:06:03;;;;;;;87.60;44.10;;;;;;;-1.48;88.76;98995.84;419705;1294;99274;-40
2022/11/29 00:16:12;;;;;;;98.50;47.60;;;;;;;-1.58;88.95;98994.21;419676;1303;112215;-41
2022/11/29 00:26:19;;;;;;;93.10;44.50;;;;;;;-1.70;88.81;98995.81;419635;1294;106565;-39
2022/11/29 00:36:27;;;;;;;75.50;38.60;;;;;;;-1.91;88.67;99003.23;419704;1300;98043;-42
2022/11/29 00:46:35;;;;;;;69.70;38.40;;;;;;;-2.05;88.75;98999.27;419574;1304;110290;-40
2022/11/29 00:56:42;;;;;;;67.00;39.40;;;;;;;-2.18;88.60;98995.19;419504;1301;105744;-40
2022/11/29 01:06:50;;;;;;;60.90;36.50;;;;;;;-2.26;88.45;98992.33;419659;1294;99259;-41
2022/11/29 01:16:57;;;;;;;52.50;31.00;;;;;;;-2.28;88.38;98989.63;419506;1299;107515;-39
2022/11/29 01:27:04;;;;;;;86.20;40.60;;;;;;;-2.35;88.43;98984.88;419576;1304;99274;-39
2022/11/29 01:37:12;;;;;;;81.90;41.60;;;;;;;-2.29;89.32;98976.80;419563;1295;111979;-40
2022/11/29 01:47:19;;;;;;;85.90;40.20;;;;;;;-2.38;88.92;98975.11;419657;1294;108481;-40
2022/11/29 01:57:28;;;;;;;71.80;34.50;;;;;;;-2.45;89.25;98971.44;419517;1294;99329;-39
2022/11/29 02:07:34;;;;;;;74.60;38.20;;;;;;;-2.32;89.13;98975.11;419526;1301;111874;-40
2022/11/29 02:17:42;;;;;;;63.90;33.30;;;;;;;-2.25;89.01;98978.05;420411;1278;108748;-39
2022/11/29 02:28:10;;;;;;;66.50;33.70;;;;;;;-2.17;89.12;98974.73;419471;1301;99234;-39
2022/11/29 02:38:21;;;;;;;94.60;40.60;;;;;;;-2.15;89.08;98977.32;419701;1295;108335;-39
2022/11/29 02:48:33;;;;;;;93.00;38.30;;;;;;;-2.24;89.23;98984.41;419789;1295;98366;-38
2022/11/29 02:58:45;;;;;;;70.70;32.90;;;;;;;-2.34;89.27;98990.68;419775;1292;111798;-40
2022/11/29 03:08:56;;;;;;;74.30;34.50;;;;;;;-2.28;89.27;98994.05;419606;1295;108433;-40
2022/11/29 03:29:14;;;;;;;58.80;29.10;;;;;;;-2.17;89.49;99005.83;419775;1302;107968;-40
2022/11/29 03:39:24;;;;;;;60.30;30.20;;;;;;;-2.05;89.52;99011.54;419755;1294;99262;-38
2022/11/29 03:49:34;;;;;;;97.60;40.70;;;;;;;-2.01;89.62;99020.05;419770;1302;111774;-40
2022/11/29 03:59:44;;;;;;;97.20;39.20;;;;;;;-2.07;89.84;99022.96;419659;1295;108569;-40
2022/11/29 04:09:59;;;;;;;85.80;36.90;;;;;;;-2.17;89.36;99027.90;419689;1302;99293;-40
2022/11/29 04:20:43;;;;;;;80.90;37.30;;;;;;;-2.16;89.65;99032.36;419759;1300;112145;-38
2022/11/29 04:30:48;;;;;;;76.00;36.70;;;;;;;-2.09;89.77;99042.63;419576;1302;108233;-39
2022/11/29 04:41:01;;;;;;;66.60;32.60;;;;;;;-1.93;89.89;99050.97;419585;1296;98235;-39
2022/11/29 04:51:08;;;;;;;77.40;37.10;;;;;;;-1.82;90.03;99054.80;419496;1294;107657;-38
2022/11/29 05:01:15;;;;;;;65.60;30.20;;;;;;;-1.99;89.89;99065.55;419541;1307;99279;-38
2022/11/29 05:11:21;;;;;;;63.00;30.90;;;;;;;-2.15;89.77;99078.16;419581;1304;112398;-40
2022/11/29 05:21:42;;;;;;;58.10;29.60;;;;;;;-2.19;90.12;99088.18;419543;1294;107630;-40
2022/11/29 05:31:52;;;;;;;56.60;28.40;;;;;;;-2.02;90.41;99095.83;419635;1295;98042;-40
2022/11/29 05:42:16;;;;;;;63.90;30.30;;;;;;;-1.88;90.06;99096.00;419486;1304;106959;-38
2022/11/29 05:52:23;;;;;;;77.50;37.40;;;;;;;-1.99;90.26;99105.49;419557;1294;98061;-40
2022/11/29 06:02:30;;;;;;;85.50;35.70;;;;;;;-2.18;90.27;99115.98;419705;1304;111195;-38
2022/11/29 06:12:37;;;;;;;86.00;34.90;;;;;;;-2.29;90.25;99121.63;419619;1294;108067;-39
2022/11/29 06:22:57;;;;;;;66.70;29.40;;;;;;;-2.32;90.27;99129.17;419583;1294;99147;-41
2022/11/29 06:33:08;;;;;;;;;;;;;;;-2.36;90.42;99136.37;419528;1299;108562;-40
2022/11/29 06:43:17;;;;;;;62.90;28.40;;;;;;;-2.26;90.54;99144.33;419692;1295;99288;-38
2022/11/29 06:53:30;;;;;;;51.30;24.80;;;;;;;-2.16;90.67;99152.52;419606;1307;110077;-40
2022/11/29 07:03:42;;;;;;;65.20;30.40;;;;;;;-2.06;90.49;99166.23;419518;1291;108045;-39
2022/11/29 07:13:49;;;;;;;63.90;29.60;;;;;;;-2.22;90.67;99172.09;419741;1293;98147;-39
2022/11/29 07:23:55;;;;;;;66.70;31.30;;;;;;;-2.05;91.07;99172.35;419632;1301;107949;-39
2022/11/29 07:34:02;;;;;;;47.60;23.90;;;;;;;-2.01;91.10;99184.05;419770;1305;100177;-38
2022/11/29 07:44:12;;;;;;;48.00;23.80;;;;;;;-2.05;91.41;99191.50;419805;1304;110127;-38
2022/11/29 07:54:20;;;;;;;47.80;25.70;;;;;;;-1.95;91.20;99195.44;419701;1298;107999;-41
2022/11/29 08:04:27;;;;;;;82.40;35.10;;;;;;;-1.89;91.45;99195.79;419823;1305;99154;-39
2022/11/29 08:14:34;;;;;;;61.50;24.60;;;;;;;-1.77;91.71;99196.60;419895;1295;112541;-39
2022/11/29 08:24:41;;;;;;;94.00;39.00;;;;;;;-1.72;91.40;99202.86;419766;1300;106785;-39
2022/11/29 08:34:49;;;;;;;49.90;24.20;;;;;;;-1.68;91.48;99208.70;419565;1304;99224;-40
2022/11/29 08:44:57;;;;;;;74.20;33.20;;;;;;;-1.57;91.73;99211.77;419706;1298;108673;-40
2022/11/29 08:55:04;;;;;;;79.80;33.10;;;;;;;-1.34;91.68;99213.65;419699;1293;98036;-40
2022/11/29 09:05:13;;;;;;;118.80;46.20;;;;;;;-1.39;91.85;99213.92;419723;1305;112009;-41
2022/11/29 09:15:20;;;;;;;96.90;38.40;;;;;;;-1.36;91.86;99217.63;419626;1295;106389;-39
2022/11/29 09:25:28;;;;;;;68.30;34.00;;;;;;;-1.21;91.73;99220.16;419662;1300;99247;-39
2022/11/29 09:45:45;;;;;;;61.20;30.80;;;;;;;-0.91;91.83;99214.52;419641;1295;98546;-39
2022/11/29 09:55:55;;;;;;;87.30;38.60;;;;;;;-0.95;92.07;99218.80;419743;1295;112403;-40
2022/11/29 10:06:08;;;;;;;83.40;36.80;;;;;;;-0.95;92.23;99216.42;419651;1302;107568;-40
2022/11/29 10:16:21;;;;;;;71.90;36.10;;;;;;;-0.69;92.30;99214.98;419602;1296;99275;-40
2022/11/29 10:26:29;;;;;;;62.60;29.80;;;;;;;-0.52;92.29;99211.73;419621;1301;111635;-40
2022/11/29 10:36:41;;;;;;;102.30;39.20;;;;;;;-0.64;92.26;99205.92;419658;1304;107708;-40
2022/11/29 10:46:50;;;;;;;108.20;45.80;;;;;;;-0.61;92.44;99205.11;419726;1304;98746;-40
2022/11/29 10:56:55;;;;;;;72.90;36.30;;;;;;;-0.52;92.28;99197.87;419739;1302;111268;-40
2022/11/29 11:07:04;;;;;;;68.50;34.00;;;;;;;-0.44;92.47;99192.55;419701;1302;107789;-39
2022/11/29 11:17:15;;;;;;;;;;;;;;;-0.18;92.41;99188.31;419459;1302;487415;-39
2022/11/29 11:27:30;;;;;;;90.20;40.40;;;;;;;-0.07;92.32;99189.32;419796;1295;107916;-40
2022/11/29 11:37:38;;;;;;;114.60;49.50;;;;;;;-0.20;92.35;99191.11;419860;1302;99381;-40
2022/11/29 11:47:47;;;;;;;109.50;48.70;;;;;;;-0.20;92.53;99189.21;419733;1294;111416;-39
2022/11/29 11:57:58;;;;;;;73.20;36.60;;;;;;;-0.21;92.25;99190.85;419759;1299;107688;-40
2022/11/29 12:08:15;;;;;;;62.60;30.80;;;;;;;-0.09;92.35;99198.95;419784;1293;99265;-40
2022/11/29 12:18:28;;;;;;;69.80;33.80;;;;;;;-0.15;92.45;99199.98;419888;1294;106751;-40
2022/11/29 12:28:38;;;;;;;94.30;43.30;;;;;;;-0.09;92.48;99203.89;419712;1304;99227;-41
2022/11/29 12:39:07;;;;;;;108.40;45.20;;;;;;;-0.05;92.55;99213.38;419729;1304;110690;-40
2022/11/29 12:49:22;;;;;;;91.30;38.10;;;;;;;-0.26;92.47;99214.76;419732;1294;107081;-40
2022/11/29 12:59:30;;;;;;;68.20;34.50;;;;;;;-0.32;92.61;99222.27;419718;1295;98054;-40
2022/11/29 13:09:52;;;;;;;65.20;32.80;;;;;;;-0.36;92.47;99226.84;419681;1304;110237;-40
2022/11/29 13:20:00;;;;;;;84.60;37.40;;;;;;;-0.49;92.60;99236.91;419685;1295;106229;-38
2022/11/29 13:30:13;;;;;;;86.50;38.10;;;;;;;-0.59;92.75;99241.33;419769;1301;98570;-40
2022/11/29 13:40:21;;;;;;;66.50;30.00;;;;;;;-0.61;92.96;99252.38;419713;1298;108162;-39
2022/11/29 14:00:58;;;;;;;56.10;26.60;;;;;;;-0.59;92.76;99261.23;419610;1304;112032;-39
2022/11/29 14:11:17;;;;;;;52.20;28.50;;;;;;;-0.73;92.67;99263.36;419666;1294;107632;-41
2022/11/29 14:21:24;;;;;;;56.80;29.40;;;;;;;-0.87;92.83;99268.11;419738;1302;98052;-40
2022/11/29 14:31:51;;;;;;;60.10;28.30;;;;;;;-0.89;92.85;99266.20;419738;1288;107943;-40
2022/11/29 14:41:59;;;;;;;82.90;37.90;;;;;;;-0.82;92.99;99268.52;419816;1296;99179;-40
2022/11/29 14:52:18;;;;;;;69.70;33.20;;;;;;;-0.96;93.00;99280.34;419792;1294;112912;-39
2022/11/29 15:02:27;;;;;;;70.20;33.30;;;;;;;-0.88;93.06;99295.41;419780;1295;107337;-40
2022/11/29 15:12:36;;;;;;;54.80;26.30;;;;;;;-0.91;93.19;99300.15;419848;1302;99268;-40
2022/11/29 15:33:00;;;;;;;67.90;34.10;;;;;;;-0.92;93.42;99313.43;419839;1301;99264;-39
2022/11/29 15:43:13;;;;;;;83.60;41.90;;;;;;;-0.85;93.59;99318.17;419725;1294;111814;-40
2022/11/29 15:53:18;;;;;;;70.60;34.60;;;;;;;-0.87;93.33;99315.36;419686;1300;107619;-39
2022/11/29 16:03:27;;;;;;;63.70;28.80;;;;;;;-0.86;93.03;99316.70;419654;1294;99115;-39
2022/11/29 16:13:41;;;;;;;62.70;30.60;;;;;;;-0.84;93.14;99320.50;419679;1293;106250;-38
2022/11/29 16:23:49;;;;;;;76.10;33.90;;;;;;;-0.83;93.15;99326.06;419673;1304;98082;-38
2022/11/29 16:33:56;;;;;;;83.70;32.80;;;;;;;-1.02;93.29;99334.04;419721;1302;111639;-40
2022/11/29 16:44:05;;;;;;;59.60;27.00;;;;;;;-1.10;93.42;99327.86;419661;1294;108448;-39
2022/11/29 16:54:20;;;;;;;63.40;30.20;;;;;;;-1.09;93.53;99340.04;419709;1302;99126;-52
2022/11/29 17:04:28;;;;;;;71.10;31.60;;;;;;;-1.03;93.66;99345.55;419776;1302;107431;-40
2022/11/29 17:14:35;;;;;;;64.30;28.90;;;;;;;-0.99;93.62;99350.86;419589;1294;99300;-39
2022/11/29 17:24:43;;;;;;;71.30;32.20;;;;;;;-0.99;93.77;99344.25;419635;1304;110880;-39
2022/11/29 17:34:54;;;;;;;89.70;37.50;;;;;;;-0.92;93.77;99347.20;419732;1295;108863;-38
2022/11/29 17:45:02;;;;;;;113.00;44.60;;;;;;;-0.98;93.96;99353.21;419689;1302;98071;-39
2022/11/29 17:55:10;;;;;;;79.50;33.90;;;;;;;-1.00;93.90;99358.77;419593;1287;107404;-40
2022/11/29 18:15:23;;;;;;;89.30;40.90;;;;;;;-0.88;93.64;99373.45;419666;1295;111077;-38
2022/11/29 18:25:31;;;;;;;106.10;46.10;;;;;;;-0.87;93.50;99380.81;419617;1303;108580;-39
2022/11/29 18:35:46;;;;;;;92.20;40.00;;;;;;;-0.90;93.63;99379.84;419790;1304;99168;-40
2022/11/29 18:45:54;;;;;;;121.10;47.00;;;;;;;-0.87;93.81;99386.23;419690;1302;107683;-39
2022/11/29 18:56:02;;;;;;;141.20;53.90;;;;;;;-1.00;93.64;99390.14;419758;1304;99265;-39
2022/11/29 19:06:07;;;;;;;93.30;43.70;;;;;;;-1.10;93.62;99387.55;419678;1295;112223;-39
2022/11/29 19:16:12;;;;;;;77.40;36.30;;;;;;;-1.08;93.65;99388.54;419658;1288;107700;-38
2022/11/29 19:26:18;;;;;;;88.50;38.90;;;;;;;-1.00;93.77;99404.13;419818;1302;99254;-38
2022/11/29 19:36:28;;;;;;;114.10;49.30;;;;;;;-1.03;94.02;99407.11;419682;1295;108413;-39
2022/11/29 19:46:35;;;;;;;105.70;46.20;;;;;;;-1.13;94.19;99418.13;419832;1302;99264;-41
2022/11/29 19:56:42;;;;;;;89.10;41.90;;;;;;;-1.05;94.05;99416.34;419862;1302;110870;-39
2022/11/29 20:06:50;;;;;;;103.20;43.40;;;;;;;-1.02;93.67;99412.73;419726;1294;107236;-38
2022/11/29 20:16:57;;;;;;;74.20;35.10;;;;;;;-0.94;93.85;99420.58;420568;1294;99258;-39
2022/11/29 20:37:25;;;;;;;97.70;39.80;;;;;;;-0.93;94.10;99422.55;419657;1304;97974;-39
2022/11/29 20:47:36;;;;;;;85.30;38.30;;;;;;;-0.99;94.13;99425.80;420895;1304;111250;-39
2022/11/29 20:57:43;;;;;;;83.00;38.00;;;;;;;-0.94;94.17;99427.80;419630;1302;107613;-40
2022/11/29 21:07:51;;;;;;;76.50;34.30;;;;;;;-0.90;94.12;99435.81;419408;1294;99246;-39
2022/11/29 21:17:59;;;;;;;78.80;34.10;;;;;;;-0.83;94.20;99438.42;419433;1287;108871;-40
2022/11/29 21:28:12;;;;;;;100.00;44.20;;;;;;;-0.73;94.17;99447.35;419405;1304;99275;-40
2022/11/29 21:38:22;;;;;;;119.70;48.40;;;;;;;-0.77;94.27;99446.88;419573;1294;112130;-40
2022/11/29 21:48:36;;;;;;;89.90;37.70;;;;;;;-0.87;94.14;99453.02;419401;1295;108035;-39
2022/11/29 21:58:43;;;;;;;78.40;37.00;;;;;;;-0.85;93.92;99456.80;419407;1302;99473;-37
2022/11/29 22:08:50;;;;;;;76.90;36.20;;;;;;;-0.82;94.01;99459.45;419334;1301;107551;-39
2022/11/29 22:18:56;;;;;;;82.00;38.40;;;;;;;-0.73;94.06;99456.75;419407;1304;98844;-39
2022/11/29 22:29:04;;;;;;;110.30;45.20;;;;;;;-0.72;94.02;99456.48;419481;1295;112031;-38
2022/11/29 22:39:11;;;;;;;99.90;40.30;;;;;;;-0.81;94.21;99457.47;419503;1294;108423;-38
2022/11/29 22:49:19;;;;;;;79.00;31.60;;;;;;;-0.93;94.01;99462.52;419616;1294;99252;-39
2022/11/29 22:59:26;;;;;;;71.90;32.50;;;;;;;-0.96;93.91;99453.73;419840;1294;109680;-38
2022/11/29 23:09:33;;;;;;;66.40;26.80;;;;;;;-0.96;93.95;99452.73;419683;1304;98837;-40
2022/11/29 23:19:40;;;;;;;64.00;27.10;;;;;;;-0.97;94.48;99454.86;419328;1294;513513;-39
2022/11/29 23:29:47;;;;;;;54.60;27.90;;;;;;;-1.01;94.31;99451.39;419644;1291;108176;-39
2022/11/29 23:39:55;;;;;;;60.70;28.30;;;;;;;-1.01;94.52;99455.93;419823;1294;99256;-39
2022/11/29 23:50:02;;;;;;;67.20;29.40;;;;;;;-1.07;94.74;99452.65;419807;1287;108199;-39
